createdAt,value
2017-06-27T00:00:40.401Z,1008.15
2017-06-27T00:01:53.232Z,1008.14
2017-06-27T00:03:05.480Z,1008.12
2017-06-27T00:04:17.738Z,1008.09
2017-06-27T00:05:30.280Z,1008.07
2017-06-27T00:06:42.827Z,1008.09
2017-06-27T00:07:55.388Z,1008.07
2017-06-27T00:09:07.594Z,1008.03
2017-06-27T00:10:19.827Z,1008
2017-06-27T00:11:32.363Z,1008.04
2017-06-27T00:12:44.590Z,1008.02
2017-06-27T00:13:57.128Z,1008.03
2017-06-27T00:15:09.699Z,1008
2017-06-27T00:16:21.972Z,1008.04
2017-06-27T00:17:34.510Z,1008.04
2017-06-27T00:18:46.737Z,1008.03
2017-06-27T00:19:59.306Z,1008.07
2017-06-27T00:21:11.878Z,1008.11
2017-06-27T00:22:24.148Z,1008.1
2017-06-27T00:23:36.987Z,1008.09
2017-06-27T00:24:49.542Z,1008.11
2017-06-27T00:26:02.139Z,1008.12
2017-06-27T00:27:14.707Z,1008.14
2017-06-27T00:28:27.226Z,1008.14
2017-06-27T00:29:39.774Z,1008.16
2017-06-27T00:30:52.023Z,1008.17
2017-06-27T00:32:04.562Z,1008.2
2017-06-27T00:33:17.115Z,1008.17
2017-06-27T00:34:29.660Z,1008.18
2017-06-27T00:35:42.200Z,1008.15
2017-06-27T00:36:54.468Z,1008.14
2017-06-27T00:38:07.017Z,1008.18
2017-06-27T00:39:19.591Z,1008.17
2017-06-27T00:40:32.384Z,1008.15
2017-06-27T00:41:44.633Z,1008.15
2017-06-27T00:42:57.185Z,1008.15
2017-06-27T00:44:09.754Z,1008.2
2017-06-27T00:45:22.294Z,1008.25
2017-06-27T00:46:34.840Z,1008.23
2017-06-27T00:47:47.390Z,1008.23
2017-06-27T00:48:59.933Z,1008.21
2017-06-27T00:50:12.470Z,1008.2
2017-06-27T00:51:25.301Z,1008.2
2017-06-27T00:52:37.876Z,1008.18
2017-06-27T00:53:50.467Z,1008.22
2017-06-27T00:55:02.988Z,1008.17
2017-06-27T00:56:15.532Z,1008.16
2017-06-27T00:57:27.755Z,1008.16
2017-06-27T00:58:40.313Z,1008.13
2017-06-27T00:59:52.851Z,1008.09
2017-06-27T01:01:05.101Z,1008.1
2017-06-27T01:02:17.663Z,1008.11
2017-06-27T01:03:29.938Z,1008.13
2017-06-27T01:04:42.197Z,1008.1
2017-06-27T01:05:54.768Z,1008.1
2017-06-27T01:07:07.539Z,1008.06
2017-06-27T01:08:20.089Z,1008.06
2017-06-27T01:09:32.663Z,1008.03
2017-06-27T01:10:45.202Z,1008.02
2017-06-27T01:11:57.429Z,1008.05
2017-06-27T01:13:09.973Z,1008.05
2017-06-27T01:14:22.497Z,1008.02
2017-06-27T01:15:35.036Z,1008.04
2017-06-27T01:16:47.555Z,1007.99
2017-06-27T01:18:00.127Z,1008.03
2017-06-27T01:19:12.709Z,1007.98
2017-06-27T01:20:24.955Z,1008.04
2017-06-27T01:21:37.497Z,1008.03
2017-06-27T01:22:50.089Z,1008.04
2017-06-27T01:24:02.615Z,1008.01
2017-06-27T01:25:15.160Z,1008.03
2017-06-27T01:26:27.435Z,1008.01
2017-06-27T01:27:39.977Z,1008.05
2017-06-27T01:28:52.537Z,1008.03
2017-06-27T01:30:05.068Z,1008.08
2017-06-27T01:31:17.614Z,1008.08
2017-06-27T01:32:30.165Z,1008.04
2017-06-27T01:33:42.406Z,1008.03
2017-06-27T01:34:54.923Z,1008.06
2017-06-27T01:36:07.455Z,1008.02
2017-06-27T01:37:20.016Z,1008.05
2017-06-27T01:38:32.561Z,1008.02
2017-06-27T01:39:45.083Z,1008.02
2017-06-27T01:40:57.332Z,1008.03
2017-06-27T01:42:09.856Z,1008.05
2017-06-27T01:43:22.090Z,1008.03
2017-06-27T01:44:34.666Z,1008.02
2017-06-27T01:45:47.193Z,1008.07
2017-06-27T01:46:59.740Z,1008.07
2017-06-27T01:48:12.292Z,1008.1
2017-06-27T01:49:24.846Z,1008.12
2017-06-27T01:50:37.362Z,1008.1
2017-06-27T01:51:49.619Z,1008.1
2017-06-27T01:53:01.870Z,1008.13
2017-06-27T01:54:14.433Z,1008.16
2017-06-27T01:55:26.974Z,1008.16
2017-06-27T01:56:39.500Z,1008.09
2017-06-27T01:57:52.054Z,1008.15
2017-06-27T01:59:04.305Z,1008.14
2017-06-27T02:00:16.864Z,1008.12
2017-06-27T02:01:29.433Z,1008.12
2017-06-27T02:02:41.660Z,1008.14
2017-06-27T02:03:54.213Z,1008.15
2017-06-27T02:05:06.742Z,1008.12
2017-06-27T02:06:19.300Z,1008.14
2017-06-27T02:07:31.851Z,1008.15
2017-06-27T02:08:44.107Z,1008.15
2017-06-27T02:09:56.661Z,1008.15
2017-06-27T02:11:09.211Z,1008.15
2017-06-27T02:12:22.058Z,1008.15
2017-06-27T02:13:34.572Z,1008.15
2017-06-27T02:14:47.117Z,1008.15
2017-06-27T02:15:59.663Z,1008.15
2017-06-27T02:17:12.180Z,1008.18
2017-06-27T02:18:24.704Z,1008.21
2017-06-27T02:19:37.280Z,1008.21
2017-06-27T02:20:49.822Z,1008.21
2017-06-27T02:22:02.318Z,1008.24
2017-06-27T02:23:15.160Z,1008.22
2017-06-27T02:24:27.710Z,1008.22
2017-06-27T02:25:40.230Z,1008.2
2017-06-27T02:26:52.477Z,1008.17
2017-06-27T02:28:05.025Z,1008.18
2017-06-27T02:29:17.572Z,1008.15
2017-06-27T02:30:29.810Z,1008.21
2017-06-27T02:31:42.366Z,1008.18
2017-06-27T02:32:54.898Z,1008.23
2017-06-27T02:34:07.437Z,1008.2
2017-06-27T02:35:19.998Z,1008.19
2017-06-27T02:36:32.515Z,1008.19
2017-06-27T02:37:45.039Z,1008.21
2017-06-27T02:38:57.565Z,1008.22
2017-06-27T02:40:10.103Z,1008.24
2017-06-27T02:41:22.377Z,1008.24
2017-06-27T02:42:34.877Z,1008.21
2017-06-27T02:43:47.419Z,1008.21
2017-06-27T02:44:59.965Z,1008.24
2017-06-27T02:46:12.513Z,1008.25
2017-06-27T02:47:25.055Z,1008.25
2017-06-27T02:48:37.629Z,1008.25
2017-06-27T02:49:49.870Z,1008.23
2017-06-27T02:51:02.349Z,1008.25
2017-06-27T02:52:14.308Z,1008.28
2017-06-27T02:53:26.853Z,1008.32
2017-06-27T02:54:39.400Z,1008.33
2017-06-27T02:55:51.946Z,1008.37
2017-06-27T02:57:04.483Z,1008.33
2017-06-27T02:58:16.743Z,1008.34
2017-06-27T02:59:29.296Z,1008.35
2017-06-27T03:00:41.844Z,1008.31
2017-06-27T03:01:54.683Z,1008.31
2017-06-27T03:03:07.194Z,1008.34
2017-06-27T03:04:19.725Z,1008.36
2017-06-27T03:05:32.269Z,1008.35
2017-06-27T03:06:45.104Z,1008.35
2017-06-27T03:07:57.616Z,1008.39
2017-06-27T03:09:10.137Z,1008.37
2017-06-27T03:10:22.370Z,1008.39
2017-06-27T03:11:34.614Z,1008.41
2017-06-27T03:12:46.863Z,1008.41
2017-06-27T03:13:59.402Z,1008.42
2017-06-27T03:15:11.629Z,1008.43
2017-06-27T03:16:23.880Z,1008.41
2017-06-27T03:17:36.659Z,1008.48
2017-06-27T03:18:48.900Z,1008.49
2017-06-27T03:20:00.823Z,1008.51
2017-06-27T03:21:13.366Z,1008.54
2017-06-27T03:22:25.888Z,1008.52
2017-06-27T03:23:38.131Z,1008.55
2017-06-27T03:24:50.676Z,1008.58
2017-06-27T03:26:02.922Z,1008.52
2017-06-27T03:27:15.456Z,1008.55
2017-06-27T03:28:27.993Z,1008.53
2017-06-27T03:29:40.539Z,1008.54
2017-06-27T03:30:53.084Z,1008.51
2017-06-27T03:32:05.323Z,1008.56
2017-06-27T03:33:17.854Z,1008.56
2017-06-27T03:34:30.415Z,1008.56
2017-06-27T03:35:42.947Z,1008.54
2017-06-27T03:36:55.508Z,1008.56
2017-06-27T03:38:08.056Z,1008.57
2017-06-27T03:39:20.560Z,1008.57
2017-06-27T03:40:33.110Z,1008.59
2017-06-27T03:41:45.637Z,1008.59
2017-06-27T03:42:58.168Z,1008.62
2017-06-27T03:44:10.743Z,1008.61
2017-06-27T03:45:23.594Z,1008.65
2017-06-27T03:46:36.131Z,1008.65
2017-06-27T03:47:48.682Z,1008.68
2017-06-27T03:49:00.904Z,1008.68
2017-06-27T03:50:13.448Z,1008.7
2017-06-27T03:51:25.690Z,1008.7
2017-06-27T03:52:38.224Z,1008.74
2017-06-27T03:53:50.766Z,1008.76
2017-06-27T03:55:03.304Z,1008.7
2017-06-27T03:56:15.847Z,1008.72
2017-06-27T03:57:28.370Z,1008.71
2017-06-27T03:58:40.945Z,1008.75
2017-06-27T03:59:53.491Z,1008.71
2017-06-27T04:01:05.746Z,1008.68
2017-06-27T04:02:18.270Z,1008.65
2017-06-27T04:03:30.829Z,1008.62
2017-06-27T04:04:43.066Z,1008.59
2017-06-27T04:05:55.014Z,1008.59
2017-06-27T04:07:07.261Z,1008.55
2017-06-27T04:08:19.533Z,1008.59
2017-06-27T04:09:32.054Z,1008.59
2017-06-27T04:10:44.341Z,1008.6
2017-06-27T04:11:56.866Z,1008.62
2017-06-27T04:13:09.412Z,1008.63
2017-06-27T04:14:21.958Z,1008.6
2017-06-27T04:15:34.185Z,1008.65
2017-06-27T04:16:46.731Z,1008.64
2017-06-27T04:17:59.000Z,1008.63
2017-06-27T04:19:11.224Z,1008.59
2017-06-27T04:20:23.492Z,1008.61
2017-06-27T04:21:35.759Z,1008.57
2017-06-27T04:22:48.564Z,1008.54
2017-06-27T04:24:01.122Z,1008.53
2017-06-27T04:25:13.646Z,1008.62
2017-06-27T04:26:25.627Z,1008.56
2017-06-27T04:27:38.191Z,1008.62
2017-06-27T04:28:50.761Z,1008.57
2017-06-27T04:30:03.010Z,1008.59
2017-06-27T04:31:15.583Z,1008.64
2017-06-27T04:32:28.104Z,1008.61
2017-06-27T04:33:40.942Z,1008.56
2017-06-27T04:34:53.185Z,1008.59
2017-06-27T04:36:05.420Z,1008.56
2017-06-27T04:37:17.976Z,1008.51
2017-06-27T04:38:30.530Z,1008.5
2017-06-27T04:39:43.029Z,1008.47
2017-06-27T04:40:55.277Z,1008.43
2017-06-27T04:42:07.810Z,1008.42
2017-06-27T04:43:20.385Z,1008.44
2017-06-27T04:44:33.756Z,1008.46
2017-06-27T04:45:46.331Z,1008.51
2017-06-27T04:46:58.876Z,1008.49
2017-06-27T04:48:11.129Z,1008.48
2017-06-27T04:49:23.073Z,1008.44
2017-06-27T04:50:35.616Z,1008.47
2017-06-27T04:51:48.161Z,1008.45
2017-06-27T04:53:00.724Z,1008.46
2017-06-27T04:54:13.223Z,1008.46
2017-06-27T04:55:25.745Z,1008.43
2017-06-27T04:56:38.290Z,1008.43
2017-06-27T04:57:50.516Z,1008.45
2017-06-27T04:59:03.049Z,1008.45
2017-06-27T05:00:15.579Z,1008.39
2017-06-27T05:01:28.373Z,1008.35
2017-06-27T05:02:40.932Z,1008.35
2017-06-27T05:03:53.166Z,1008.34
2017-06-27T05:05:05.718Z,1008.3
2017-06-27T05:06:18.291Z,1008.34
2017-06-27T05:07:30.513Z,1008.31
2017-06-27T05:08:43.050Z,1008.34
2017-06-27T05:09:55.620Z,1008.38
2017-06-27T05:11:07.548Z,1008.37
2017-06-27T05:12:20.096Z,1008.39
2017-06-27T05:13:32.626Z,1008.29
2017-06-27T05:14:44.880Z,1008.34
2017-06-27T05:15:57.445Z,1008.37
2017-06-27T05:17:10.015Z,1008.38
2017-06-27T05:18:22.550Z,1008.38
2017-06-27T05:19:35.093Z,1008.32
2017-06-27T05:20:47.617Z,1008.39
2017-06-27T05:22:00.161Z,1008.36
2017-06-27T05:23:12.733Z,1008.3
2017-06-27T05:24:25.278Z,1008.29
2017-06-27T05:25:37.818Z,1008.28
2017-06-27T05:26:50.063Z,1008.26
2017-06-27T05:28:02.642Z,1008.31
2017-06-27T05:29:15.180Z,1008.35
2017-06-27T05:30:27.726Z,1008.38
2017-06-27T05:31:40.247Z,1008.37
2017-06-27T05:32:52.473Z,1008.43
2017-06-27T05:34:05.019Z,1008.39
2017-06-27T05:35:17.568Z,1008.43
2017-06-27T05:36:30.126Z,1008.45
2017-06-27T05:37:42.376Z,1008.48
2017-06-27T05:38:55.232Z,1008.53
2017-06-27T05:40:07.518Z,1008.55
2017-06-27T05:41:20.063Z,1008.47
2017-06-27T05:42:32.589Z,1008.54
2017-06-27T05:43:44.827Z,1008.54
2017-06-27T05:44:57.373Z,1008.58
2017-06-27T05:46:09.355Z,1008.55
2017-06-27T05:47:21.901Z,1008.58
2017-06-27T05:48:34.458Z,1008.6
2017-06-27T05:49:47.010Z,1008.68
2017-06-27T05:50:59.565Z,1008.68
2017-06-27T05:52:11.507Z,1008.66
2017-06-27T05:53:24.078Z,1008.68
2017-06-27T05:54:36.669Z,1008.71
2017-06-27T05:55:49.248Z,1008.7
2017-06-27T05:57:01.494Z,1008.74
2017-06-27T05:58:14.056Z,1008.77
2017-06-27T05:59:26.625Z,1008.81
2017-06-27T06:00:39.424Z,1008.84
2017-06-27T06:01:51.998Z,1008.83
2017-06-27T06:03:04.257Z,1008.87
2017-06-27T06:04:16.224Z,1008.83
2017-06-27T06:05:28.761Z,1008.85
2017-06-27T06:06:40.400Z,1008.81
2017-06-27T06:07:52.934Z,1008.86
2017-06-27T06:09:05.166Z,1008.83
2017-06-27T06:10:17.744Z,1008.88
2017-06-27T06:11:30.017Z,1008.88
2017-06-27T06:12:42.546Z,1008.84
2017-06-27T06:13:55.079Z,1008.85
2017-06-27T06:15:07.625Z,1008.87
2017-06-27T06:16:20.151Z,1008.82
2017-06-27T06:17:32.713Z,1008.87
2017-06-27T06:18:45.236Z,1008.88
2017-06-27T06:19:57.477Z,1008.9
2017-06-27T06:21:09.737Z,1008.91
2017-06-27T06:22:21.980Z,1008.92
2017-06-27T06:23:34.506Z,1008.92
2017-06-27T06:24:47.072Z,1008.93
2017-06-27T06:25:59.620Z,1008.92
2017-06-27T06:27:11.869Z,1008.86
2017-06-27T06:28:24.408Z,1008.93
2017-06-27T06:29:36.951Z,1008.89
2017-06-27T06:30:49.529Z,1008.88
2017-06-27T06:32:02.092Z,1008.88
2017-06-27T06:33:14.623Z,1008.89
2017-06-27T06:34:26.883Z,1008.89
2017-06-27T06:35:39.449Z,1008.93
2017-06-27T06:36:52.004Z,1008.88
2017-06-27T06:38:04.556Z,1008.92
2017-06-27T06:39:17.099Z,1008.9
2017-06-27T06:40:29.343Z,1008.84
2017-06-27T06:41:41.885Z,1008.85
2017-06-27T06:42:54.411Z,1008.86
2017-06-27T06:44:06.974Z,1008.84
2017-06-27T06:45:19.519Z,1008.85
2017-06-27T06:46:32.089Z,1008.85
2017-06-27T06:47:44.672Z,1008.9
2017-06-27T06:48:57.235Z,1008.91
2017-06-27T06:50:09.512Z,1008.91
2017-06-27T06:51:22.054Z,1008.89
2017-06-27T06:52:34.609Z,1008.95
2017-06-27T06:53:47.165Z,1009.02
2017-06-27T06:54:59.744Z,1009.06
2017-06-27T06:56:12.016Z,1009.02
2017-06-27T06:57:24.580Z,1009.02
2017-06-27T06:58:37.170Z,1009.09
2017-06-27T06:59:49.423Z,1009.08
2017-06-27T07:01:01.379Z,1009.09
2017-06-27T07:02:13.625Z,1009.11
2017-06-27T07:03:26.214Z,1009.18
2017-06-27T07:04:38.786Z,1009.12
2017-06-27T07:05:50.725Z,1009.13
2017-06-27T07:07:03.230Z,1009.13
2017-06-27T07:08:15.795Z,1009.1
2017-06-27T07:09:28.345Z,1009.1
2017-06-27T07:10:40.899Z,1009.11
2017-06-27T07:11:53.158Z,1009.1
2017-06-27T07:13:05.750Z,1009.16
2017-06-27T07:14:18.315Z,1009.13
2017-06-27T07:15:30.877Z,1009.07
2017-06-27T07:16:43.437Z,1009.06
2017-06-27T07:17:55.971Z,1009.1
2017-06-27T07:19:08.517Z,1009.11
2017-06-27T07:20:21.117Z,1009.1
2017-06-27T07:21:33.650Z,1009.07
2017-06-27T07:22:45.896Z,1009.06
2017-06-27T07:23:58.467Z,1009.03
2017-06-27T07:25:11.030Z,1009.02
2017-06-27T07:26:23.581Z,1009.03
2017-06-27T07:27:35.851Z,1009.01
2017-06-27T07:28:48.443Z,1008.99
2017-06-27T07:30:00.974Z,1009.01
2017-06-27T07:31:13.523Z,1009.04
2017-06-27T07:32:26.092Z,1009.03
2017-06-27T07:33:38.618Z,1009.05
2017-06-27T07:34:51.175Z,1009.06
2017-06-27T07:36:03.455Z,1009.03
2017-06-27T07:37:15.711Z,1009.04
2017-06-27T07:38:28.238Z,1009.05
2017-06-27T07:39:40.819Z,1009.04
2017-06-27T07:40:53.385Z,1009.02
2017-06-27T07:42:05.652Z,1009.06
2017-06-27T07:43:18.197Z,1009.04
2017-06-27T07:44:30.476Z,1008.99
2017-06-27T07:45:43.044Z,1008.98
2017-06-27T07:46:55.338Z,1009.02
2017-06-27T07:48:07.914Z,1009
2017-06-27T07:49:20.478Z,1008.95
2017-06-27T07:50:33.030Z,1008.97
2017-06-27T07:51:45.558Z,1008.93
2017-06-27T07:52:58.101Z,1008.94
2017-06-27T07:54:10.072Z,1008.91
2017-06-27T07:55:22.628Z,1008.95
2017-06-27T07:56:34.888Z,1008.92
2017-06-27T07:57:47.423Z,1008.92
2017-06-27T07:58:59.980Z,1008.88
2017-06-27T08:00:12.820Z,1008.86
2017-06-27T08:01:25.387Z,1008.85
2017-06-27T08:02:37.965Z,1008.76
2017-06-27T08:03:50.503Z,1008.79
2017-06-27T08:05:03.019Z,1008.82
2017-06-27T08:06:15.273Z,1008.82
2017-06-27T08:07:27.552Z,1008.85
2017-06-27T08:08:40.125Z,1008.86
2017-06-27T08:09:52.653Z,1008.89
2017-06-27T08:11:05.210Z,1008.92
2017-06-27T08:12:17.800Z,1008.9
2017-06-27T08:13:30.029Z,1008.87
2017-06-27T08:14:42.583Z,1008.85
2017-06-27T08:15:54.845Z,1008.82
2017-06-27T08:17:07.380Z,1008.82
2017-06-27T08:18:19.958Z,1008.81
2017-06-27T08:19:32.234Z,1008.8
2017-06-27T08:20:44.509Z,1008.81
2017-06-27T08:21:57.080Z,1008.82
2017-06-27T08:23:09.642Z,1008.82
2017-06-27T08:24:22.222Z,1008.81
2017-06-27T08:25:34.462Z,1008.84
2017-06-27T08:26:47.030Z,1008.77
2017-06-27T08:27:59.595Z,1008.79
2017-06-27T08:29:12.170Z,1008.81
2017-06-27T08:30:24.424Z,1008.8
2017-06-27T08:31:36.384Z,1008.76
2017-06-27T08:32:48.927Z,1008.75
2017-06-27T08:34:01.187Z,1008.79
2017-06-27T08:35:13.772Z,1008.78
2017-06-27T08:36:26.021Z,1008.8
2017-06-27T08:37:38.268Z,1008.79
2017-06-27T08:38:50.543Z,1008.74
2017-06-27T08:40:03.118Z,1008.7
2017-06-27T08:41:15.377Z,1008.7
2017-06-27T08:42:27.635Z,1008.65
2017-06-27T08:43:40.417Z,1008.64
2017-06-27T08:44:52.959Z,1008.64
2017-06-27T08:46:05.219Z,1008.65
2017-06-27T08:47:17.514Z,1008.62
2017-06-27T08:48:30.056Z,1008.61
2017-06-27T08:49:42.648Z,1008.66
2017-06-27T08:50:54.926Z,1008.68
2017-06-27T08:52:07.199Z,1008.67
2017-06-27T08:53:19.745Z,1008.68
2017-06-27T08:54:32.313Z,1008.69
2017-06-27T08:55:44.578Z,1008.67
2017-06-27T08:56:57.177Z,1008.67
2017-06-27T08:58:09.740Z,1008.71
2017-06-27T08:59:22.012Z,1008.66
2017-06-27T09:00:33.986Z,1008.67
2017-06-27T09:01:46.558Z,1008.69
2017-06-27T09:02:58.514Z,1008.65
2017-06-27T09:04:10.832Z,1008.63
2017-06-27T09:05:23.402Z,1008.6
2017-06-27T09:06:35.973Z,1008.6
2017-06-27T09:07:48.550Z,1008.63
2017-06-27T09:09:01.119Z,1008.64
2017-06-27T09:10:13.384Z,1008.6
2017-06-27T09:11:25.921Z,1008.61
2017-06-27T09:12:38.495Z,1008.62
2017-06-27T09:13:51.053Z,1008.66
2017-06-27T09:15:03.020Z,1008.65
2017-06-27T09:16:15.005Z,1008.7
2017-06-27T09:17:27.590Z,1008.7
2017-06-27T09:18:40.161Z,1008.74
2017-06-27T09:19:52.707Z,1008.72
2017-06-27T09:21:04.679Z,1008.72
2017-06-27T09:22:17.291Z,1008.73
2017-06-27T09:23:29.859Z,1008.72
2017-06-27T09:24:41.813Z,1008.72
2017-06-27T09:25:54.372Z,1008.7
2017-06-27T09:27:06.932Z,1008.69
2017-06-27T09:28:19.492Z,1008.7
2017-06-27T09:29:31.759Z,1008.71
2017-06-27T09:30:44.053Z,1008.68
2017-06-27T09:31:56.336Z,1008.73
2017-06-27T09:33:08.582Z,1008.7
2017-06-27T09:34:21.183Z,1008.73
2017-06-27T09:35:33.774Z,1008.73
2017-06-27T09:36:46.046Z,1008.74
2017-06-27T09:37:58.565Z,1008.74
2017-06-27T09:39:11.134Z,1008.73
2017-06-27T09:40:23.407Z,1008.73
2017-06-27T09:41:35.951Z,1008.76
2017-06-27T09:42:48.503Z,1008.76
2017-06-27T09:44:01.117Z,1008.77
2017-06-27T09:45:13.697Z,1008.78
2017-06-27T09:46:26.263Z,1008.75
2017-06-27T09:47:38.533Z,1008.73
2017-06-27T09:48:50.809Z,1008.72
2017-06-27T09:50:03.405Z,1008.74
2017-06-27T09:51:15.072Z,1008.68
2017-06-27T09:52:27.658Z,1008.7
2017-06-27T09:53:40.215Z,1008.75
2017-06-27T09:54:52.764Z,1008.66
2017-06-27T09:56:05.022Z,1008.71
2017-06-27T09:57:17.590Z,1008.65
2017-06-27T09:58:30.127Z,1008.67
2017-06-27T09:59:42.707Z,1008.69
2017-06-27T10:00:55.268Z,1008.73
2017-06-27T10:02:07.542Z,1008.75
2017-06-27T10:03:19.519Z,1008.73
2017-06-27T10:04:31.473Z,1008.75
2017-06-27T10:05:44.069Z,1008.73
2017-06-27T10:06:56.644Z,1008.69
2017-06-27T10:08:08.614Z,1008.69
2017-06-27T10:09:21.182Z,1008.7
2017-06-27T10:10:33.769Z,1008.72
2017-06-27T10:11:46.352Z,1008.75
2017-06-27T10:12:58.922Z,1008.7
2017-06-27T10:14:11.465Z,1008.71
2017-06-27T10:15:24.035Z,1008.64
2017-06-27T10:16:36.039Z,1008.68
2017-06-27T10:17:48.624Z,1008.67
2017-06-27T10:19:01.220Z,1008.68
2017-06-27T10:20:13.766Z,1008.67
2017-06-27T10:21:26.324Z,1008.65
2017-06-27T10:22:38.864Z,1008.66
2017-06-27T10:23:51.141Z,1008.65
2017-06-27T10:25:03.706Z,1008.65
2017-06-27T10:26:16.299Z,1008.57
2017-06-27T10:27:28.870Z,1008.57
2017-06-27T10:28:41.170Z,1008.52
2017-06-27T10:29:53.137Z,1008.6
2017-06-27T10:31:05.731Z,1008.58
2017-06-27T10:32:18.304Z,1008.56
2017-06-27T10:33:30.883Z,1008.55
2017-06-27T10:34:43.449Z,1008.54
2017-06-27T10:35:56.037Z,1008.54
2017-06-27T10:37:08.622Z,1008.5
2017-06-27T10:38:21.180Z,1008.44
2017-06-27T10:39:33.749Z,1008.4
2017-06-27T10:40:45.729Z,1008.42
2017-06-27T10:41:58.319Z,1008.39
2017-06-27T10:43:10.598Z,1008.32
2017-06-27T10:44:23.183Z,1008.3
2017-06-27T10:45:35.765Z,1008.24
2017-06-27T10:46:48.335Z,1008.21
2017-06-27T10:48:00.297Z,1008.2
2017-06-27T10:49:12.563Z,1008.17
2017-06-27T10:50:24.848Z,1008.11
2017-06-27T10:51:37.423Z,1008.13
2017-06-27T10:52:49.963Z,1008.07
2017-06-27T10:54:02.525Z,1008.1
2017-06-27T10:55:15.106Z,1008.06
2017-06-27T10:56:27.679Z,1008.04
2017-06-27T10:57:40.229Z,1008.02
2017-06-27T10:58:52.797Z,1008.01
2017-06-27T11:00:05.616Z,1007.95
2017-06-27T11:01:18.210Z,1008
2017-06-27T11:02:30.487Z,1007.98
2017-06-27T11:03:43.048Z,1008
2017-06-27T11:04:55.629Z,1008
2017-06-27T11:06:08.224Z,1007.98
2017-06-27T11:07:20.814Z,1007.93
2017-06-27T11:08:33.401Z,1007.96
2017-06-27T11:09:45.709Z,1007.93
2017-06-27T11:10:58.326Z,1007.93
2017-06-27T11:12:10.941Z,1007.93
2017-06-27T11:13:23.486Z,1007.94
2017-06-27T11:14:36.038Z,1007.96
2017-06-27T11:15:48.327Z,1007.92
2017-06-27T11:16:59.952Z,1007.94
2017-06-27T11:18:12.531Z,1007.88
2017-06-27T11:19:25.115Z,1007.91
2017-06-27T11:20:37.390Z,1007.93
2017-06-27T11:21:49.990Z,1007.93
2017-06-27T11:23:02.616Z,1007.96
2017-06-27T11:24:15.210Z,1007.91
2017-06-27T11:25:27.773Z,1007.86
2017-06-27T11:26:40.348Z,1007.83
2017-06-27T11:27:52.023Z,1007.79
2017-06-27T11:29:04.598Z,1007.85
2017-06-27T11:30:17.154Z,1007.87
2017-06-27T11:31:29.729Z,1007.82
2017-06-27T11:32:42.328Z,1007.78
2017-06-27T11:33:54.894Z,1007.77
2017-06-27T11:35:07.458Z,1007.79
2017-06-27T11:36:20.008Z,1007.82
2017-06-27T11:37:32.858Z,1007.76
2017-06-27T11:38:45.136Z,1007.76
2017-06-27T11:39:57.730Z,1007.73
2017-06-27T11:41:09.999Z,1007.74
2017-06-27T11:42:22.596Z,1007.77
2017-06-27T11:43:35.165Z,1007.77
2017-06-27T11:44:47.414Z,1007.75
2017-06-27T11:45:59.963Z,1007.77
2017-06-27T11:47:12.555Z,1007.73
2017-06-27T11:48:25.150Z,1007.72
2017-06-27T11:49:37.725Z,1007.7
2017-06-27T11:50:49.671Z,1007.7
2017-06-27T11:52:02.234Z,1007.72
2017-06-27T11:53:14.805Z,1007.7
2017-06-27T11:54:27.401Z,1007.66
2017-06-27T11:55:39.957Z,1007.68
2017-06-27T11:56:52.517Z,1007.63
2017-06-27T11:58:05.114Z,1007.59
2017-06-27T11:59:18.009Z,1007.56
2017-06-27T12:00:30.586Z,1007.5
2017-06-27T12:01:43.178Z,1007.51
2017-06-27T12:02:55.450Z,1007.52
2017-06-27T12:04:08.039Z,1007.45
2017-06-27T12:05:20.293Z,1007.45
2017-06-27T12:06:32.565Z,1007.47
2017-06-27T12:07:45.137Z,1007.44
2017-06-27T12:08:57.394Z,1007.43
2017-06-27T12:10:09.947Z,1007.43
2017-06-27T12:11:22.543Z,1007.44
2017-06-27T12:12:35.143Z,1007.39
2017-06-27T12:13:47.382Z,1007.46
2017-06-27T12:14:59.963Z,1007.43
2017-06-27T12:16:12.252Z,1007.42
2017-06-27T12:17:24.528Z,1007.37
2017-06-27T12:18:36.497Z,1007.33
2017-06-27T12:19:49.086Z,1007.36
2017-06-27T12:21:01.636Z,1007.35
2017-06-27T12:22:14.211Z,1007.37
2017-06-27T12:23:26.806Z,1007.34
2017-06-27T12:24:39.365Z,1007.28
2017-06-27T12:25:51.916Z,1007.26
2017-06-27T12:27:04.477Z,1007.28
2017-06-27T12:28:16.439Z,1007.25
2017-06-27T12:29:29.010Z,1007.24
2017-06-27T12:30:41.581Z,1007.2
2017-06-27T12:31:53.231Z,1007.21
2017-06-27T12:33:05.524Z,1007.18
2017-06-27T12:34:18.095Z,1007.21
2017-06-27T12:35:30.684Z,1007.18
2017-06-27T12:36:43.238Z,1007.19
2017-06-27T12:37:55.832Z,1007.2
2017-06-27T12:39:08.433Z,1007.17
2017-06-27T12:40:20.975Z,1007.18
2017-06-27T12:41:33.566Z,1007.18
2017-06-27T12:42:45.811Z,1007.13
2017-06-27T12:43:58.408Z,1007.13
2017-06-27T12:45:10.999Z,1007.06
2017-06-27T12:46:23.554Z,1007.06
2017-06-27T12:47:35.827Z,1007.01
2017-06-27T12:48:48.450Z,1007
2017-06-27T12:50:01.006Z,1006.97
2017-06-27T12:51:13.569Z,1006.95
2017-06-27T12:52:25.833Z,1006.93
2017-06-27T12:53:38.105Z,1006.91
2017-06-27T12:54:50.678Z,1006.96
2017-06-27T12:56:02.960Z,1006.96
2017-06-27T12:57:15.546Z,1006.92
2017-06-27T12:58:28.109Z,1006.93
2017-06-27T12:59:40.701Z,1006.84
2017-06-27T13:00:53.272Z,1006.84
2017-06-27T13:02:05.851Z,1006.88
2017-06-27T13:03:18.409Z,1006.83
2017-06-27T13:04:30.686Z,1006.76
2017-06-27T13:05:42.950Z,1006.74
2017-06-27T13:06:55.206Z,1006.73
2017-06-27T13:08:07.819Z,1006.67
2017-06-27T13:09:20.404Z,1006.69
2017-06-27T13:10:32.652Z,1006.68
2017-06-27T13:11:45.191Z,1006.63
2017-06-27T13:12:57.760Z,1006.62
2017-06-27T13:14:10.352Z,1006.61
2017-06-27T13:15:22.606Z,1006.57
2017-06-27T13:16:35.173Z,1006.52
2017-06-27T13:17:47.747Z,1006.54
2017-06-27T13:19:00.037Z,1006.55
2017-06-27T13:20:12.318Z,1006.49
2017-06-27T13:21:24.602Z,1006.5
2017-06-27T13:22:37.181Z,1006.47
2017-06-27T13:23:49.448Z,1006.54
2017-06-27T13:25:01.715Z,1006.5
2017-06-27T13:26:14.299Z,1006.49
2017-06-27T13:27:26.560Z,1006.42
2017-06-27T13:28:39.163Z,1006.47
2017-06-27T13:29:51.731Z,1006.49
2017-06-27T13:31:04.320Z,1006.45
2017-06-27T13:32:16.574Z,1006.44
2017-06-27T13:33:29.133Z,1006.43
2017-06-27T13:34:41.690Z,1006.41
2017-06-27T13:35:54.279Z,1006.35
2017-06-27T13:37:06.836Z,1006.34
2017-06-27T13:38:19.404Z,1006.31
2017-06-27T13:39:31.694Z,1006.29
2017-06-27T13:40:43.672Z,1006.3
2017-06-27T13:41:56.269Z,1006.28
2017-06-27T13:43:08.812Z,1006.27
2017-06-27T13:44:21.384Z,1006.25
2017-06-27T13:45:33.972Z,1006.3
2017-06-27T13:46:46.254Z,1006.25
2017-06-27T13:47:58.519Z,1006.25
2017-06-27T13:49:10.792Z,1006.22
2017-06-27T13:50:23.080Z,1006.3
2017-06-27T13:51:35.354Z,1006.32
2017-06-27T13:52:47.606Z,1006.24
2017-06-27T13:53:59.871Z,1006.26
2017-06-27T13:55:12.471Z,1006.24
2017-06-27T13:56:25.062Z,1006.23
2017-06-27T13:57:37.665Z,1006.19
2017-06-27T13:58:49.927Z,1006.18
2017-06-27T14:00:02.201Z,1006.13
2017-06-27T14:01:14.772Z,1006.1
2017-06-27T14:02:27.350Z,1006.1
2017-06-27T14:03:39.919Z,1006.12
2017-06-27T14:04:52.488Z,1006.1
2017-06-27T14:06:05.060Z,1006.11
2017-06-27T14:07:17.639Z,1006.08
2017-06-27T14:08:29.943Z,1006.09
2017-06-27T14:09:42.488Z,1006.08
2017-06-27T14:10:54.164Z,1006.07
2017-06-27T14:12:06.443Z,1006.05
2017-06-27T14:13:18.713Z,1006.04
2017-06-27T14:14:30.980Z,1006.1
2017-06-27T14:15:43.252Z,1006.08
2017-06-27T14:16:55.825Z,1006.16
2017-06-27T14:18:08.394Z,1006.12
2017-06-27T14:19:20.660Z,1006.12
2017-06-27T14:20:33.260Z,1006.1
2017-06-27T14:21:45.548Z,1006.06
2017-06-27T14:22:58.103Z,1006.02
2017-06-27T14:24:10.691Z,1006.05
2017-06-27T14:25:23.294Z,1006.06
2017-06-27T14:26:35.837Z,1006.04
2017-06-27T14:27:48.113Z,1006.01
2017-06-27T14:29:00.386Z,1005.98
2017-06-27T14:30:12.931Z,1006.01
2017-06-27T14:31:25.470Z,1006
2017-06-27T14:32:37.436Z,1005.91
2017-06-27T14:33:49.994Z,1005.83
2017-06-27T14:35:02.586Z,1005.88
2017-06-27T14:36:14.874Z,1005.86
2017-06-27T14:37:27.145Z,1005.8
2017-06-27T14:38:39.716Z,1005.75
2017-06-27T14:39:52.276Z,1005.78